Time;durP1;ratioP1;P1;durP2;ratioP2;P2;SDS_P1;SDS_P2;PMS_P1;PMS_P2;Temp;Humidity;BMP_temperature;BMP_pressure;BME280_temperature;BME280_humidity;BME280_pressure;Samples;Min_cycle;Max_cycle;Signal;HPM_P1;HPM_P2
2022/08/13 00:00:47;;;;;;;57.33;16.63;;;;;;;19.68;58.39;100483.22;5007189;28;20295;-68
2022/08/13 00:03:14;;;;;;;44.10;14.60;;;;;;;19.61;57.94;100493.97;5011793;28;20608;-67
2022/08/13 00:05:40;;;;;;;43.38;15.80;;;;;;;19.59;58.94;100488.75;5014217;28;20237;-69
2022/08/13 00:08:06;;;;;;;48.60;16.55;;;;;;;19.60;59.38;100484.84;5024920;28;20050;-69
2022/08/13 00:10:32;;;;;;;44.33;16.10;;;;;;;19.60;59.06;100472.94;5024989;28;20172;-67
2022/08/13 00:13:03;;;;;;;36.00;12.98;;;;;;;19.63;58.14;100478.63;5024190;28;20136;-69
2022/08/13 00:15:32;;;;;;;63.85;17.88;;;;;;;19.58;58.55;100484.34;5024268;28;20065;-67
2022/08/13 00:18:03;;;;;;;63.28;16.95;;;;;;;19.53;59.28;100482.50;5024299;28;20468;-68
2022/08/13 00:20:34;;;;;;;54.03;17.25;;;;;;;19.52;59.48;100478.09;5025529;28;20068;-67
2022/08/13 00:23:01;;;;;;;53.90;17.73;;;;;;;19.49;59.99;100477.91;5022808;28;20397;-68
2022/08/13 00:25:27;;;;;;;69.85;18.65;;;;;;;19.50;60.08;100474.84;5024457;28;20091;-68
2022/08/13 00:27:57;;;;;;;49.75;16.13;;;;;;;19.47;59.53;100474.66;5023511;28;20052;-69
2022/08/13 00:30:29;;;;;;;62.70;17.92;;;;;;;19.42;60.02;100478.38;5025291;28;20053;-67
2022/08/13 00:32:55;;;;;;;64.47;16.67;;;;;;;19.42;60.29;100475.59;5007205;28;20045;-69
2022/08/13 00:35:23;;;;;;;55.53;16.45;;;;;;;19.45;60.12;100477.75;5024879;28;20084;-69
2022/08/13 00:37:49;;;;;;;61.67;17.15;;;;;;;19.45;59.07;100476.94;5006496;28;20041;-69
2022/08/13 00:40:17;;;;;;;51.75;15.88;;;;;;;19.34;58.09;100466.09;5024231;28;20108;-68
2022/08/13 00:42:43;;;;;;;63.70;14.55;;;;;;;19.22;57.17;100468.66;5025825;28;20037;-70
2022/08/13 00:45:10;;;;;;;50.10;15.27;;;;;;;19.16;57.58;100470.75;5025115;28;20099;-69
2022/08/13 00:50:22;;;;;;;46.80;14.32;;;;;;;19.13;58.80;100466.66;5023742;28;20208;-70
2022/08/13 00:52:49;;;;;;;52.88;16.80;;;;;;;19.07;58.37;100464.31;5025910;28;20140;-69
2022/08/13 00:55:17;;;;;;;;;;;;;;;19.06;58.97;100469.06;5007019;28;20064;-68
2022/08/13 00:57:45;;;;;;;49.00;12.68;;;;;;;19.04;58.03;100457.44;5022337;28;19931;-68
2022/08/13 01:00:23;;;;;;;62.72;15.35;;;;;;;19.01;58.70;100465.59;5023100;28;20049;-69
2022/08/13 01:02:50;;;;;;;52.85;14.68;;;;;;;18.93;58.66;100461.59;5023780;28;20045;-69
2022/08/13 01:05:19;;;;;;;58.40;16.60;;;;;;;18.84;59.08;100458.78;5023380;28;20049;-69
2022/08/13 01:07:47;;;;;;;49.95;14.32;;;;;;;18.78;59.17;100457.25;5006608;28;20152;-69
2022/08/13 01:10:14;;;;;;;;;;;;;;;18.70;58.81;100458.81;5020497;28;20077;-70
2022/08/13 01:12:40;;;;;;;;;;;;;;;18.68;58.44;100461.91;5027329;28;19952;-68
2022/08/13 01:15:12;;;;;;;49.05;13.60;;;;;;;18.64;58.53;100457.31;5022829;28;20039;-68
2022/08/13 01:17:39;;;;;;;63.15;15.38;;;;;;;18.60;59.27;100459.09;5021776;28;20076;-68
2022/08/13 01:20:09;;;;;;;57.88;15.55;;;;;;;18.60;59.73;100453.53;5023342;28;20049;-68
2022/08/13 01:22:38;;;;;;;57.55;14.48;;;;;;;18.56;59.46;100454.16;5023764;28;20505;-69
2022/08/13 01:25:08;;;;;;;49.25;13.88;;;;;;;18.50;60.36;100451.84;5024977;28;20046;-68
2022/08/13 01:27:36;;;;;;;46.85;15.43;;;;;;;18.48;60.93;100451.31;5023222;28;20100;-69
2022/08/13 01:30:05;;;;;;;52.60;16.13;;;;;;;18.46;61.59;100459.09;5022285;28;20037;-69
2022/08/13 01:32:32;;;;;;;52.90;15.30;;;;;;;18.43;61.97;100458.59;5021941;28;20065;-70
2022/08/13 01:35:00;;;;;;;53.05;16.40;;;;;;;18.45;62.31;100450.00;5023939;28;20064;-68
2022/08/13 01:37:26;;;;;;;66.25;21.38;;;;;;;18.45;62.64;100458.31;5022234;28;20076;-70
2022/08/13 01:39:54;;;;;;;64.53;20.73;;;;;;;18.43;62.94;100453.06;5023147;28;20049;-70
2022/08/13 01:42:21;;;;;;;;;;;;;;;18.38;62.56;100452.38;5023558;28;20509;-67
2022/08/13 01:44:48;;;;;;;56.92;15.38;;;;;;;18.38;62.49;100455.13;5023065;28;19925;-68
2022/08/13 01:52:47;;;;;;;70.30;15.27;;;;;;;18.37;61.93;100459.88;5023188;28;20402;-69
2022/08/13 01:55:17;;;;;;;37.17;13.25;;;;;;;18.27;61.68;100443.47;5022485;28;20057;-70
2022/08/13 01:57:44;;;;;;;47.72;14.77;;;;;;;18.32;61.44;100443.34;5022875;28;20049;-69
2022/08/13 02:00:14;;;;;;;43.22;14.65;;;;;;;18.43;60.86;100449.50;5024723;28;20063;-69
2022/08/13 02:02:42;;;;;;;42.20;15.15;;;;;;;18.43;60.87;100441.19;5023563;28;20056;-70
2022/08/13 02:05:10;;;;;;;43.47;14.45;;;;;;;18.42;61.06;100445.91;5020393;28;20069;-68
2022/08/13 02:07:37;;;;;;;51.75;16.17;;;;;;;18.39;61.56;100451.22;5022524;28;20037;-70
2022/08/13 02:10:04;;;;;;;50.03;17.33;;;;;;;18.43;61.77;100452.25;5022197;28;20457;-69
2022/08/13 02:12:34;;;;;;;51.95;15.70;;;;;;;18.51;61.78;100451.50;5022069;28;20076;-70
2022/08/13 02:15:05;;;;;;;47.53;16.73;;;;;;;18.68;61.25;100445.31;5021235;28;20053;-70
2022/08/13 02:17:38;;;;;;;52.20;16.70;;;;;;;18.76;61.13;100446.50;5021629;28;20525;-69
2022/08/13 02:20:06;;;;;;;59.50;18.33;;;;;;;18.77;60.83;100442.59;5020609;28;20099;-68
2022/08/13 02:22:32;;;;;;;42.95;16.90;;;;;;;18.76;60.94;100435.41;5020932;28;20045;-69
2022/08/13 02:24:59;;;;;;;64.30;18.63;;;;;;;18.76;61.51;100440.97;5023334;28;20083;-70
2022/08/13 02:27:26;;;;;;;48.10;17.83;;;;;;;18.81;61.62;100446.38;5023052;28;20099;-70
2022/08/13 02:29:55;;;;;;;46.75;17.20;;;;;;;18.85;61.76;100455.66;5022712;28;20441;-69
2022/08/13 02:32:23;;;;;;;67.80;19.80;;;;;;;18.82;62.31;100441.66;5020530;28;20080;-70
2022/08/13 02:34:50;;;;;;;52.58;20.23;;;;;;;18.81;62.77;100446.38;5020524;28;20041;-68
2022/08/13 02:37:16;;;;;;;;;;;;;;;18.80;62.99;100443.91;5021612;28;20045;-69
2022/08/13 02:39:43;;;;;;;72.85;21.02;;;;;;;18.76;62.64;100440.97;5023307;28;20400;-68
2022/08/13 02:42:09;;;;;;;61.38;21.95;;;;;;;18.71;63.11;100439.13;5021915;28;20100;-70
2022/08/13 02:44:36;;;;;;;62.97;20.37;;;;;;;18.75;63.24;100444.88;5022869;28;20059;-69
2022/08/13 02:47:04;;;;;;;71.75;21.25;;;;;;;18.73;62.84;100440.75;5021749;28;20064;-69
2022/08/13 02:49:31;;;;;;;66.18;21.75;;;;;;;18.79;63.05;100445.88;5022507;28;20052;-67
2022/08/13 02:51:58;;;;;;;65.53;23.45;;;;;;;18.83;63.16;100441.31;5022602;28;20451;-67
2022/08/13 02:54:25;;;;;;;78.82;21.85;;;;;;;18.89;62.73;100447.56;5020686;28;20041;-69
2022/08/13 02:56:51;;;;;;;;;;;;;;;19.03;62.26;100452.25;5022799;28;20046;-68
2022/08/13 02:59:17;;;;;;;60.85;20.10;;;;;;;19.06;62.01;100452.44;5021837;28;20692;-69
2022/08/13 03:01:45;;;;;;;62.05;20.48;;;;;;;19.10;62.27;100458.16;5021849;28;20056;-67
2022/08/13 03:04:15;;;;;;;76.32;23.00;;;;;;;19.14;62.24;100459.16;5021938;28;20095;-70
2022/08/13 03:06:42;;;;;;;93.32;23.75;;;;;;;19.08;61.86;100457.66;5023033;28;20107;-66
2022/08/13 03:09:08;;;;;;;;;;;;;;;19.03;61.80;100461.34;5022960;28;20140;-68
2022/08/13 03:11:36;;;;;;;81.57;20.10;;;;;;;19.06;62.07;100455.22;5024609;28;19955;-69
2022/08/13 03:14:04;;;;;;;83.57;21.50;;;;;;;19.16;62.02;100464.38;5022599;28;20076;-68
2022/08/13 03:16:31;;;;;;;82.38;22.35;;;;;;;19.27;61.54;100460.22;5020897;28;20034;-67
2022/08/13 03:18:58;;;;;;;92.40;23.37;;;;;;;19.39;61.03;100454.91;5022840;28;20103;-69
2022/08/13 03:21:28;;;;;;;92.60;24.40;;;;;;;19.46;60.88;100451.66;5003580;28;20046;-70
2022/08/13 03:23:54;;;;;;;78.00;21.15;;;;;;;19.51;60.43;100457.06;5019928;28;20053;-69
2022/08/13 03:26:21;;;;;;;98.88;22.42;;;;;;;19.60;60.20;100445.19;5021154;28;20049;-67
2022/08/13 03:28:51;;;;;;;86.63;22.05;;;;;;;19.70;59.67;100445.72;5019951;28;20132;-69
2022/08/13 03:31:17;;;;;;;94.13;24.33;;;;;;;19.90;58.90;100450.97;5020398;28;20563;-69
2022/08/13 03:33:43;;;;;;;96.70;24.83;;;;;;;19.98;59.27;100448.28;5003930;28;20685;-68
2022/08/13 03:36:09;;;;;;;82.23;24.83;;;;;;;20.10;58.45;100455.16;5021249;28;20336;-70
2022/08/13 03:38:37;;;;;;;90.72;23.75;;;;;;;20.17;58.57;100460.22;5023688;28;20101;-69
2022/08/13 03:41:11;;;;;;;81.35;20.15;;;;;;;20.27;58.38;100457.16;5020281;28;20168;-69
2022/08/13 03:43:42;;;;;;;92.13;23.75;;;;;;;20.35;57.46;100458.28;5020457;28;20682;-69
2022/08/13 03:46:09;;;;;;;81.90;24.23;;;;;;;20.38;57.67;100458.47;5020020;28;20037;-68
2022/08/13 03:48:35;;;;;;;;;;;;;;;20.38;57.52;100458.47;5021791;28;20082;-68
2022/08/13 03:51:01;;;;;;;103.45;26.30;;;;;;;20.30;58.11;100456.50;5020092;28;19925;-69
2022/08/13 03:53:28;;;;;;;89.32;25.98;;;;;;;20.22;58.79;100451.75;5022101;28;20046;-68
2022/08/13 03:55:58;;;;;;;92.73;27.27;;;;;;;20.25;58.60;100457.47;5020100;28;20057;-70
2022/08/13 03:58:26;;;;;;;82.15;25.25;;;;;;;20.38;58.58;100464.03;5005139;28;20754;-70
2022/08/13 04:00:52;;;;;;;95.82;24.63;;;;;;;20.50;57.79;100455.03;5023146;28;20045;-69
2022/08/13 04:03:20;;;;;;;119.80;26.13;;;;;;;20.63;57.25;100463.53;5027414;28;20445;-69
2022/08/13 04:05:48;;;;;;;95.60;23.90;;;;;;;20.69;56.98;100459.44;5024616;28;20512;-69
2022/08/13 04:08:15;;;;;;;90.97;23.92;;;;;;;20.77;56.54;100447.53;5023341;28;20056;-68
2022/08/13 04:10:41;;;;;;;78.80;22.85;;;;;;;20.81;56.24;100453.25;5026183;28;20049;-69
2022/08/13 04:13:12;;;;;;;73.75;22.00;;;;;;;20.89;55.83;100444.09;5026841;28;20053;-69
2022/08/13 04:15:42;;;;;;;93.90;24.13;;;;;;;20.98;55.56;100446.84;5024084;28;20056;-70
2022/08/13 04:18:11;;;;;;;96.55;25.10;;;;;;;21.01;55.29;100446.19;5025420;28;20049;-69
2022/08/13 04:20:39;;;;;;;110.80;24.15;;;;;;;21.02;54.91;100447.81;5025007;28;20052;-70
2022/08/13 04:23:08;;;;;;;85.15;22.23;;;;;;;21.04;54.70;100444.72;5023322;28;20053;-68
2022/08/13 04:25:35;;;;;;;108.85;23.35;;;;;;;21.09;54.61;100450.94;5023339;28;20049;-70
2022/08/13 04:28:01;;;;;;;84.88;21.65;;;;;;;21.14;54.37;100441.56;5024627;28;20049;-69
2022/08/13 04:30:28;;;;;;;96.13;23.55;;;;;;;21.12;53.87;100432.75;5025432;28;20055;-70
2022/08/13 04:32:55;;;;;;;85.00;20.08;;;;;;;21.25;52.96;100450.41;5025317;28;20419;-70
2022/08/13 04:35:21;;;;;;;70.00;18.48;;;;;;;21.29;52.71;100444.97;5025610;28;20045;-68
2022/08/13 04:37:47;;;;;;;90.88;17.55;;;;;;;21.33;52.14;100438.41;5023587;28;20568;-68
2022/08/13 04:40:13;;;;;;;83.18;20.92;;;;;;;21.39;52.16;100436.28;5027124;28;20053;-68
2022/08/13 04:42:44;;;;;;;56.15;18.08;;;;;;;21.52;52.00;100437.19;5024589;28;20046;-69
2022/08/13 04:45:12;;;;;;;61.47;18.55;;;;;;;21.68;51.85;100437.50;5024916;28;20045;-68
2022/08/13 04:47:40;;;;;;;85.05;19.65;;;;;;;21.76;51.15;100441.38;5023575;28;20619;-70
2022/08/13 04:50:06;;;;;;;79.32;20.15;;;;;;;21.84;51.05;100439.69;5022482;28;20176;-68
2022/08/13 04:52:33;;;;;;;67.47;18.48;;;;;;;21.96;50.57;100435.03;5023284;28;20578;-68
2022/08/13 04:55:02;;;;;;;58.40;17.15;;;;;;;22.07;50.18;100438.22;5024058;28;20059;-69
2022/08/13 04:57:29;;;;;;;58.95;19.13;;;;;;;22.14;50.11;100429.34;5024968;28;20076;-70
2022/08/13 04:59:55;;;;;;;64.80;18.90;;;;;;;22.18;49.69;100430.31;5023842;28;20087;-70
2022/08/13 05:02:23;;;;;;;53.17;18.73;;;;;;;22.22;49.60;100420.13;5005910;28;20053;-71
2022/08/13 05:04:51;;;;;;;60.17;18.05;;;;;;;22.29;49.42;100427.94;5021761;28;20049;-70
2022/08/13 05:07:18;;;;;;;68.45;17.65;;;;;;;22.35;49.44;100426.56;5023270;28;20061;-69
2022/08/13 05:09:45;;;;;;;56.70;16.08;;;;;;;22.40;48.93;100425.56;5023229;28;20050;-69
2022/08/13 05:12:11;;;;;;;61.27;16.57;;;;;;;22.46;48.50;100426.97;5025660;28;20508;-69
2022/08/13 05:14:37;;;;;;;44.67;14.65;;;;;;;22.53;48.56;100432.03;5023937;28;20073;-70
2022/08/13 05:17:04;;;;;;;66.55;14.70;;;;;;;22.56;48.24;100427.75;5023593;28;20163;-70
2022/08/13 05:19:30;;;;;;;42.83;14.05;;;;;;;22.59;48.02;100427.88;5023084;28;20116;-69
2022/08/13 05:21:57;;;;;;;42.55;14.30;;;;;;;22.58;47.95;100426.25;5026320;28;20140;-70
2022/08/13 05:24:23;;;;;;;45.58;13.30;;;;;;;22.62;47.96;100427.19;5024302;28;20119;-69
2022/08/13 05:26:52;;;;;;;37.63;14.32;;;;;;;22.68;48.15;100425.03;5025356;28;20099;-69
2022/08/13 05:29:19;;;;;;;35.78;13.15;;;;;;;22.72;48.00;100422.38;5023383;28;20045;-69
2022/08/13 05:31:45;;;;;;;50.20;14.27;;;;;;;22.74;47.43;100422.84;5022914;28;20049;-68
2022/08/13 05:34:11;;;;;;;35.90;12.68;;;;;;;22.73;47.36;100422.00;5024843;28;20128;-69
2022/08/13 05:36:39;;;;;;;41.35;14.55;;;;;;;22.83;47.18;100426.34;5016006;28;20425;-68
2022/08/13 05:39:06;;;;;;;44.03;13.02;;;;;;;22.92;47.34;100423.47;5015805;28;20629;-69
2022/08/13 05:41:33;;;;;;;49.65;14.20;;;;;;;22.92;47.05;100420.69;5020614;28;20041;-68
2022/08/13 05:44:00;;;;;;;35.70;11.95;;;;;;;23.01;46.74;100429.78;5023614;28;20053;-70
2022/08/13 05:46:26;;;;;;;30.67;12.63;;;;;;;23.03;46.45;100427.44;5024129;28;20112;-69
2022/08/13 05:48:58;;;;;;;23.47;10.63;;;;;;;23.04;46.11;100437.44;5023360;28;20052;-67
2022/08/13 05:51:25;;;;;;;30.20;10.82;;;;;;;23.02;45.97;100439.75;5021176;28;20434;-69
2022/08/13 05:53:54;;;;;;;;;;;;;;;23.00;45.83;100435.69;5023178;28;20056;-69
2022/08/13 05:56:22;;;;;;;32.28;10.20;;;;;;;22.95;46.13;100433.94;5022858;28;20301;-68
2022/08/13 05:58:48;;;;;;;37.80;11.60;;;;;;;22.92;46.20;100434.63;5023697;28;20053;-71
2022/08/13 06:04:00;;;;;;;41.50;11.02;;;;;;;22.91;46.52;100435.78;5021318;28;20091;-69
2022/08/13 06:06:28;;;;;;;36.10;10.52;;;;;;;23.08;46.72;100438.38;5023945;28;20065;-69
2022/08/13 06:08:58;;;;;;;33.22;11.35;;;;;;;23.30;45.82;100433.59;5021797;28;20179;-69
2022/08/13 06:11:30;;;;;;;31.17;10.50;;;;;;;23.49;45.47;100430.25;5022569;28;20045;-69
2022/08/13 06:13:57;;;;;;;28.02;10.85;;;;;;;23.68;45.09;100433.59;5023717;28;20602;-68
2022/08/13 06:16:28;;;;;;;30.52;10.30;;;;;;;23.87;44.40;100431.03;5025475;28;20068;-68
2022/08/13 06:18:58;;;;;;;27.77;8.93;;;;;;;24.01;43.89;100430.69;5007118;28;20080;-70
2022/08/13 06:21:26;;;;;;;36.95;9.68;;;;;;;24.17;43.50;100439.16;5024113;28;20073;-69
2022/08/13 06:23:52;;;;;;;27.27;9.43;;;;;;;24.32;42.85;100440.41;5022628;28;20049;-71
2022/08/13 06:26:21;;;;;;;25.52;8.57;;;;;;;24.41;42.57;100442.25;5023326;28;20527;-70
2022/08/13 06:28:51;;;;;;;27.17;8.20;;;;;;;24.53;42.22;100436.63;5024015;28;20436;-69
2022/08/13 06:31:25;;;;;;;28.63;8.48;;;;;;;24.61;41.75;100435.66;5026275;28;20041;-68
2022/08/13 06:33:55;;;;;;;28.60;8.10;;;;;;;24.83;41.51;100436.28;5024330;28;20044;-69
2022/08/13 06:36:24;;;;;;;19.45;8.13;;;;;;;25.05;41.20;100436.88;5023951;28;20520;-70
2022/08/13 06:38:52;;;;;;;21.17;7.80;;;;;;;25.23;40.39;100440.16;5022629;28;20054;-69
2022/08/13 06:41:22;;;;;;;18.15;8.10;;;;;;;25.34;39.77;100446.00;5020598;28;20452;-70
2022/08/13 06:43:51;;;;;;;22.95;7.53;;;;;;;25.41;39.62;100450.97;5022152;28;20063;-69
2022/08/13 06:46:21;;;;;;;19.27;7.70;;;;;;;25.56;39.17;100441.81;5023394;28;20050;-69
2022/08/13 06:48:47;;;;;;;20.15;7.03;;;;;;;25.65;38.74;100447.22;5021856;28;20041;-69
2022/08/13 06:51:13;;;;;;;18.10;7.18;;;;;;;25.66;39.14;100448.84;5021080;28;20045;-69
2022/08/13 06:53:42;;;;;;;30.48;9.23;;;;;;;25.73;39.39;100445.41;5021204;28;20049;-70
2022/08/13 06:56:11;;;;;;;17.17;7.00;;;;;;;25.80;39.02;100455.97;5022431;28;20532;-70
2022/08/13 06:58:39;;;;;;;18.80;7.57;;;;;;;25.90;38.23;100450.63;5023980;28;20187;-70
2022/08/13 07:01:07;;;;;;;20.10;7.68;;;;;;;25.97;37.87;100449.19;5022341;28;20516;-69
2022/08/13 07:03:34;;;;;;;18.40;7.65;;;;;;;25.95;38.08;100443.13;5023839;28;20112;-70
2022/08/13 07:06:00;;;;;;;;;;;;;;;26.01;38.01;100455.66;5022347;28;20242;-70
2022/08/13 07:08:29;;;;;;;15.10;7.20;;;;;;;26.21;37.26;100448.16;5020819;28;20395;-68
2022/08/13 07:13:44;;;;;;;18.60;6.80;;;;;;;26.65;35.09;100447.06;5022031;28;20095;-70
2022/08/13 07:16:16;;;;;;;18.48;7.45;;;;;;;26.65;35.41;100446.25;5021616;28;20045;-70
2022/08/13 07:18:43;;;;;;;21.55;7.65;;;;;;;26.73;35.37;100443.22;5022113;28;20037;-69
2022/08/13 07:21:11;;;;;;;18.95;7.80;;;;;;;26.86;35.03;100443.09;5020634;28;20046;-70
2022/08/13 07:23:38;;;;;;;15.63;7.43;;;;;;;26.97;34.87;100440.50;5019106;28;20544;-69
2022/08/13 07:26:05;;;;;;;34.85;7.30;;;;;;;27.14;33.96;100444.78;5002740;28;20053;-70
2022/08/13 07:28:32;;;;;;;28.30;7.22;;;;;;;27.06;34.21;100441.06;5020791;28;20057;-70
2022/08/13 07:30:59;;;;;;;;;;;;;;;26.97;34.26;100438.50;5018666;28;20060;-70
2022/08/13 07:33:27;;;;;;;18.60;6.93;;;;;;;26.98;34.07;100433.69;5021991;28;20147;-70
2022/08/13 07:35:54;;;;;;;16.48;6.75;;;;;;;27.02;33.89;100441.00;5022549;28;20103;-69
2022/08/13 07:38:20;;;;;;;16.52;6.38;;;;;;;26.87;34.08;100439.13;5022523;28;20057;-68
2022/08/13 07:40:51;;;;;;;21.00;7.47;;;;;;;26.78;34.20;100427.28;5023870;28;20512;-69
2022/08/13 07:51:28;;;;;;;26.45;9.40;;;;;;;27.94;33.50;100420.84;5065525;28;20051;-68
2022/08/13 07:53:55;;;;;;;32.60;9.75;;;;;;;28.00;33.13;100420.13;5064515;28;20102;-69
2022/08/13 07:56:28;;;;;;;19.77;7.93;;;;;;;28.35;31.87;100425.88;5064446;28;20064;-68
2022/08/13 07:58:58;;;;;;;27.65;8.60;;;;;;;28.50;32.11;100424.84;5046642;28;20044;-68
2022/08/13 08:01:26;;;;;;;25.85;9.30;;;;;;;28.47;31.90;100427.59;5068715;28;20040;-68
2022/08/13 08:03:56;;;;;;;27.20;9.00;;;;;;;28.57;30.91;100433.34;5068061;28;20055;-69
2022/08/13 08:06:22;;;;;;;26.63;9.52;;;;;;;28.47;31.24;100419.97;5071813;28;20050;-68
2022/08/13 08:08:53;;;;;;;21.80;8.52;;;;;;;28.76;31.10;100425.13;5074549;28;20067;-68
2022/08/13 08:14:04;;;;;;;37.23;9.00;;;;;;;29.17;30.38;100427.97;5073901;28;20044;-69
2022/08/13 08:16:32;;;;;;;22.40;8.48;;;;;;;29.60;29.70;100427.59;5070342;28;20299;-69
2022/08/13 08:18:59;;;;;;;26.73;8.45;;;;;;;29.89;29.18;100418.50;5055597;28;20139;-69
2022/08/13 08:21:26;;;;;;;;;;;;;;;29.85;29.31;100424.94;5071688;28;20048;-68
2022/08/13 08:23:58;;;;;;;34.17;8.85;;;;;;;29.80;29.19;100416.84;5074406;28;19928;-68
2022/08/13 08:26:26;;;;;;;26.33;9.63;;;;;;;29.78;29.26;100413.59;5069933;28;20067;-68
2022/08/13 08:28:54;;;;;;;50.67;10.93;;;;;;;29.88;29.36;100414.88;5066956;28;20110;-69
2022/08/13 08:31:21;;;;;;;26.55;9.40;;;;;;;30.19;29.23;100406.22;5073697;28;20419;-68
2022/08/13 08:33:47;;;;;;;;;;;;;;;30.55;28.47;100404.34;5071767;28;20507;-67
2022/08/13 08:36:13;;;;;;;39.17;10.90;;;;;;;30.59;28.17;100398.72;5071872;28;19929;-69
2022/08/13 08:44:23;;;;;;;25.08;9.40;;;;;;;30.14;29.08;100401.75;5069119;28;20048;-68
2022/08/13 08:46:51;;;;;;;31.15;10.20;;;;;;;30.04;29.16;100400.50;5074581;28;20045;-67
2022/08/13 08:49:20;;;;;;;32.10;10.05;;;;;;;30.00;29.31;100394.81;5076688;28;20055;-68
2022/08/13 08:51:48;;;;;;;32.28;10.52;;;;;;;30.10;28.97;100406.59;5072506;28;20133;-67
2022/08/13 08:54:14;;;;;;;37.20;10.10;;;;;;;30.14;28.83;100385.69;5073304;28;20049;-68
2022/08/13 08:56:42;;;;;;;47.03;10.82;;;;;;;30.55;28.60;100403.53;5074463;28;20056;-68
2022/08/13 08:59:10;;;;;;;36.20;10.90;;;;;;;30.56;28.41;100396.69;5071982;28;20051;-68
2022/08/13 09:01:36;;;;;;;28.50;10.50;;;;;;;30.74;28.33;100398.78;5053224;28;20049;-68
2022/08/13 09:04:05;;;;;;;30.40;10.13;;;;;;;31.02;27.60;100400.03;5075243;28;20037;-67
2022/08/13 09:06:31;;;;;;;28.55;10.30;;;;;;;31.40;27.36;100395.66;5081949;28;20048;-67
2022/08/13 09:08:58;;;;;;;49.28;10.52;;;;;;;31.67;26.45;100392.38;5079032;28;20102;-68
2022/08/13 09:11:24;;;;;;;;;;;;;;;31.70;26.98;100396.44;5055447;28;20044;-68
2022/08/13 09:13:52;;;;;;;53.70;11.10;;;;;;;32.05;26.51;100394.75;5068785;28;20341;-69
2022/08/13 09:16:18;;;;;;;33.17;10.13;;;;;;;32.16;26.13;100393.88;5085420;28;20055;-69
2022/08/13 09:18:45;;;;;;;36.03;10.98;;;;;;;32.51;25.37;100387.28;5078902;28;20044;-67
2022/08/13 09:21:11;;;;;;;33.75;10.82;;;;;;;32.81;25.13;100385.91;5087139;28;20063;-69
2022/08/13 09:23:44;;;;;;;36.95;12.25;;;;;;;32.64;24.83;100384.00;5065377;28;20044;-70
2022/08/13 09:26:11;;;;;;;26.10;10.15;;;;;;;32.68;25.15;100387.59;5072660;28;20567;-68
2022/08/13 09:28:39;;;;;;;29.38;10.32;;;;;;;32.61;25.35;100394.09;5064550;28;20048;-68
2022/08/13 09:31:07;;;;;;;39.88;10.10;;;;;;;32.93;24.77;100378.97;5084596;28;20036;-69
2022/08/13 09:33:38;;;;;;;29.88;10.02;;;;;;;33.81;23.65;100390.38;5070488;28;20044;-68
2022/08/13 09:36:06;;;;;;;23.73;9.73;;;;;;;34.46;22.53;100383.94;5062474;28;20086;-70
2022/08/13 09:38:34;;;;;;;36.88;9.98;;;;;;;34.96;22.18;100375.09;5066559;28;20846;-70
2022/08/13 09:41:09;;;;;;;23.27;10.25;;;;;;;34.98;21.78;100381.19;5075155;28;20072;-70
2022/08/13 09:43:39;;;;;;;23.25;10.25;;;;;;;34.74;21.35;100383.97;5051279;28;20057;-70
2022/08/13 09:46:07;;;;;;;28.35;10.60;;;;;;;33.98;22.27;100380.06;5048119;28;20045;-69
2022/08/13 09:48:33;;;;;;;29.58;9.40;;;;;;;33.38;23.10;100377.41;5056612;28;20059;-68
2022/08/13 09:51:02;;;;;;;30.85;9.80;;;;;;;33.08;23.47;100376.84;5068136;28;20036;-71
2022/08/13 09:53:28;;;;;;;42.05;9.82;;;;;;;33.06;23.57;100373.63;5061292;28;20139;-70
2022/08/13 09:55:55;;;;;;;30.95;10.10;;;;;;;32.98;23.58;100374.91;5075304;28;20098;-68
2022/08/13 09:58:23;;;;;;;34.85;10.98;;;;;;;33.32;23.23;100376.25;5079826;28;20032;-70
2022/08/13 10:00:54;;;;;;;26.13;8.95;;;;;;;33.76;21.73;100370.97;4886220;28;10000634;-70
2022/08/13 10:03:21;;;;;;;23.92;9.57;;;;;;;34.07;21.43;100369.03;5070129;28;20269;-70
2022/08/13 10:05:47;;;;;;;32.30;9.43;;;;;;;34.20;21.27;100357.91;5049515;28;20063;-69
2022/08/13 10:08:16;;;;;;;29.33;8.80;;;;;;;34.27;20.53;100344.88;5063527;28;20044;-69
2022/08/13 10:10:44;;;;;;;25.83;8.88;;;;;;;34.40;20.59;100350.78;5059800;28;20044;-69
2022/08/13 10:13:10;;;;;;;26.05;8.70;;;;;;;34.86;20.06;100352.16;5051566;28;20046;-69
2022/08/13 10:15:37;;;;;;;;;;;;;;;34.99;19.34;100346.66;5070363;28;20442;-69
2022/08/13 10:18:04;;;;;;;35.28;8.80;;;;;;;35.41;19.00;100349.19;5067555;28;20027;-68
2022/08/13 10:20:33;;;;;;;34.13;9.32;;;;;;;35.19;19.41;100354.47;5068839;28;20054;-67
2022/08/13 10:23:02;;;;;;;26.30;8.95;;;;;;;35.00;19.91;100353.16;5068232;28;20048;-69
2022/08/13 10:25:29;;;;;;;29.27;9.30;;;;;;;34.96;20.54;100347.53;5073425;28;20052;-69
2022/08/13 10:27:56;;;;;;;31.90;11.02;;;;;;;35.37;19.65;100347.69;5071241;28;20568;-69
2022/08/13 10:30:25;;;;;;;28.58;10.02;;;;;;;36.24;19.05;100348.84;5045492;28;20483;-68
2022/08/13 10:32:55;;;;;;;28.40;9.30;;;;;;;37.34;18.26;100342.19;5063824;28;20138;-70
2022/08/13 10:35:24;;;;;;;34.78;10.82;;;;;;;38.22;17.17;100347.88;5070071;28;20051;-67
2022/08/13 10:37:56;;;;;;;22.85;9.32;;;;;;;38.49;16.89;100346.69;5074120;28;20213;-68
2022/08/13 10:40:23;;;;;;;37.38;10.18;;;;;;;38.39;16.96;100342.88;5057273;28;20044;-68
2022/08/13 10:42:51;;;;;;;40.17;10.30;;;;;;;38.47;16.81;100336.97;5056844;28;20435;-68
2022/08/13 10:45:19;;;;;;;32.95;11.05;;;;;;;38.34;16.87;100334.91;5062136;28;20052;-68
2022/08/13 10:47:46;;;;;;;26.38;10.00;;;;;;;38.36;16.69;100340.94;5063236;28;20059;-69
2022/08/13 10:50:13;;;;;;;41.97;10.65;;;;;;;38.25;16.77;100335.59;5036656;28;20550;-70
2022/08/13 10:52:39;;;;;;;28.08;11.18;;;;;;;38.13;16.81;100337.16;5057476;28;20048;-70
2022/08/13 10:55:09;;;;;;;30.25;10.20;;;;;;;38.43;16.77;100337.06;5058491;28;20071;-69
2022/08/13 10:57:36;;;;;;;33.53;10.50;;;;;;;37.98;16.83;100330.25;5055792;28;20139;-71
2022/08/13 11:00:04;;;;;;;38.08;11.18;;;;;;;38.54;16.72;100339.63;5045050;28;20135;-68
2022/08/13 11:02:30;;;;;;;31.42;10.57;;;;;;;39.02;16.24;100330.31;5061673;28;20044;-68
2022/08/13 11:04:56;;;;;;;2.15;1.40;;;;;;;38.71;16.16;100326.81;5053804;28;20407;-68
2022/08/13 11:07:23;;;;;;;2.47;1.73;;;;;;;38.88;16.13;100317.31;5069141;28;20463;-68
2022/08/13 11:09:49;;;;;;;20.02;8.10;;;;;;;39.26;15.62;100327.84;5031697;28;20040;-70
2022/08/13 11:12:16;;;;;;;;;;;;;;;39.70;15.39;100319.34;5060811;28;20138;-68
2022/08/13 11:14:46;;;;;;;29.00;8.30;;;;;;;39.81;14.98;100318.16;5061041;28;20438;-68
2022/08/13 11:17:15;;;;;;;28.83;8.50;;;;;;;39.95;14.88;100317.59;5067719;28;20461;-68
2022/08/13 11:19:45;;;;;;;18.23;7.15;;;;;;;39.68;15.37;100310.44;5062817;28;20124;-68
2022/08/13 11:22:11;;;;;;;27.02;7.63;;;;;;;39.77;15.01;100306.84;5063294;28;20131;-68
2022/08/13 11:24:37;;;;;;;20.17;7.30;;;;;;;39.00;15.68;100317.31;5061928;28;20044;-68
2022/08/13 11:27:03;;;;;;;24.73;7.38;;;;;;;38.52;16.17;100311.50;5069415;28;20044;-68
2022/08/13 11:29:31;;;;;;;23.75;7.05;;;;;;;37.97;16.68;100306.63;5065682;28;20041;-69
2022/08/13 11:31:57;;;;;;;20.27;7.03;;;;;;;37.98;16.88;100305.41;5060660;28;20044;-68
2022/08/13 11:34:25;;;;;;;31.27;7.03;;;;;;;38.47;16.79;100312.09;5062377;28;20492;-69
2022/08/13 11:36:51;;;;;;;26.67;7.78;;;;;;;38.58;16.46;100309.69;5041645;28;20051;-68
2022/08/13 11:39:18;;;;;;;36.17;8.48;;;;;;;39.06;15.95;100300.38;5056955;28;20110;-68
2022/08/13 11:41:44;;;;;;;16.50;7.05;;;;;;;38.93;16.17;100303.25;5039207;28;20056;-68
2022/08/13 11:44:10;;;;;;;18.35;6.43;;;;;;;37.82;16.83;100297.69;5035139;28;20118;-68
2022/08/13 11:46:38;;;;;;;23.27;6.82;;;;;;;36.78;17.90;100299.22;5061502;28;20052;-69
2022/08/13 11:49:04;;;;;;;21.33;6.57;;;;;;;36.33;18.55;100295.00;5069717;28;20048;-68